createdAt,value
2023-05-05T00:01:22.877Z,54.53
2023-05-05T00:03:49.218Z,53.76
2023-05-05T00:06:15.561Z,54.13
2023-05-05T00:08:41.856Z,54.21
2023-05-05T00:11:08.091Z,54.90
2023-05-05T00:13:35.850Z,55.39
2023-05-05T00:16:02.091Z,55.17
2023-05-05T00:18:28.371Z,55.44
2023-05-05T00:20:54.612Z,55.11
2023-05-05T00:23:20.860Z,53.90
2023-05-05T00:25:47.079Z,53.50
2023-05-05T00:28:13.355Z,53.84
2023-05-05T00:30:39.607Z,54.02
2023-05-05T00:33:05.842Z,54.26
2023-05-05T00:35:32.084Z,55.80
2023-05-05T00:37:58.387Z,55.44
2023-05-05T00:40:24.644Z,55.66
2023-05-05T00:42:50.952Z,55.90
2023-05-05T00:45:17.220Z,54.80
2023-05-05T00:47:43.487Z,55.19
2023-05-05T00:50:09.912Z,53.78
2023-05-05T00:52:36.232Z,51.98
2023-05-05T00:55:02.464Z,52.37
2023-05-05T00:57:28.699Z,53.20
2023-05-05T00:59:54.947Z,53.40
2023-05-05T01:02:21.244Z,52.91
2023-05-05T01:04:47.511Z,54.42
2023-05-05T01:07:13.749Z,54.44
2023-05-05T01:09:40.005Z,54.28
2023-05-05T01:12:06.245Z,52.72
2023-05-05T01:14:32.532Z,53.72
2023-05-05T01:16:58.771Z,53.57
2023-05-05T01:19:25.017Z,54.16
2023-05-05T01:21:51.316Z,54.57
2023-05-05T01:24:17.603Z,56.13
2023-05-05T01:26:43.915Z,56.07
2023-05-05T01:29:10.135Z,54.92
2023-05-05T01:31:36.430Z,53.12
2023-05-05T01:34:02.739Z,54.52
2023-05-05T01:36:28.972Z,52.12
2023-05-05T01:38:55.314Z,51.17
2023-05-05T01:41:21.634Z,49.46
2023-05-05T01:43:47.894Z,48.99
2023-05-05T01:46:14.270Z,49.95
2023-05-05T01:48:42.318Z,49.56
2023-05-05T01:51:08.644Z,49.93
2023-05-05T01:53:34.914Z,50.07
2023-05-05T01:56:01.213Z,50.18
2023-05-05T01:58:27.481Z,50.86
2023-05-05T02:00:53.844Z,52.33
2023-05-05T02:03:20.371Z,53.42
2023-05-05T02:05:46.733Z,55.06
2023-05-05T02:08:13.076Z,56.66
2023-05-05T02:10:39.422Z,57.54
2023-05-05T02:13:05.735Z,58.01
2023-05-05T02:15:32.090Z,57.85
2023-05-05T02:17:58.487Z,57.91
2023-05-05T02:20:24.804Z,58.20
2023-05-05T02:22:51.026Z,58.57
2023-05-05T02:25:17.302Z,58.65
2023-05-05T02:27:43.587Z,58.93
2023-05-05T02:30:10.078Z,59.61
2023-05-05T02:32:36.646Z,59.22
2023-05-05T02:35:02.956Z,58.52
2023-05-05T02:37:29.193Z,59.05
2023-05-05T02:39:55.435Z,60.20
2023-05-05T02:42:21.657Z,60.52
2023-05-05T02:44:47.903Z,59.30
2023-05-05T02:47:14.162Z,58.46
2023-05-05T02:49:40.421Z,57.54
2023-05-05T02:52:06.691Z,55.97
2023-05-05T02:54:32.937Z,54.71
2023-05-05T02:56:59.188Z,53.88
2023-05-05T02:59:25.448Z,52.78
2023-05-05T03:01:51.842Z,53.22
2023-05-05T03:04:18.150Z,52.50
2023-05-05T03:06:44.386Z,52.30
2023-05-05T03:09:10.633Z,52.06
2023-05-05T03:11:36.852Z,51.59
2023-05-05T03:14:03.100Z,51.56
2023-05-05T03:16:29.422Z,51.84
2023-05-05T03:18:55.723Z,53.35
2023-05-05T03:21:21.956Z,55.04
2023-05-05T03:23:48.219Z,56.76
2023-05-05T03:26:14.460Z,57.86
2023-05-05T03:28:40.732Z,58.03
2023-05-05T03:31:07.021Z,57.31
2023-05-05T03:33:33.277Z,56.64
2023-05-05T03:35:59.516Z,57.68
2023-05-05T03:38:25.799Z,58.64
2023-05-05T03:40:52.079Z,59.54
2023-05-05T03:43:18.319Z,58.30
2023-05-05T03:45:44.624Z,59.18
2023-05-05T03:48:10.956Z,58.62
2023-05-05T03:50:37.199Z,58.77
2023-05-05T03:53:03.509Z,58.15
2023-05-05T03:55:29.743Z,56.25
2023-05-05T03:57:55.974Z,55.91
2023-05-05T04:00:22.232Z,55.03
2023-05-05T04:02:48.519Z,55.30
2023-05-05T04:05:14.862Z,55.29
2023-05-05T04:07:41.180Z,54.92
2023-05-05T04:10:07.658Z,55.01
2023-05-05T04:12:34.184Z,55.20
2023-05-05T04:15:00.509Z,55.34
2023-05-05T04:17:26.777Z,55.78
2023-05-05T04:19:53.040Z,55.92
2023-05-05T04:22:19.311Z,56.51
2023-05-05T04:24:45.555Z,56.94
2023-05-05T04:27:11.829Z,58.23
2023-05-05T04:29:38.140Z,58.94
2023-05-05T04:32:04.378Z,59.12
2023-05-05T04:34:30.636Z,56.68
2023-05-05T04:36:56.934Z,57.14
2023-05-05T04:39:23.191Z,57.66
2023-05-05T04:41:49.445Z,57.81
2023-05-05T04:44:15.710Z,56.75
2023-05-05T04:46:41.980Z,55.52
2023-05-05T04:49:08.353Z,55.25
2023-05-05T04:51:34.627Z,55.03
2023-05-05T04:54:00.858Z,55.78
2023-05-05T04:56:27.156Z,55.14
2023-05-05T04:58:53.445Z,55.80
2023-05-05T05:01:19.760Z,55.83
2023-05-05T05:03:46.247Z,55.83
2023-05-05T05:06:12.617Z,56.44
2023-05-05T05:08:38.844Z,57.19
2023-05-05T05:11:05.121Z,57.20
2023-05-05T05:13:31.451Z,56.88
2023-05-05T05:15:57.698Z,56.49
2023-05-05T05:18:24.796Z,54.29
2023-05-05T05:20:51.092Z,51.85
2023-05-05T05:23:17.339Z,51.04
2023-05-05T05:25:43.623Z,50.14
2023-05-05T05:28:10.923Z,49.38
2023-05-05T05:30:37.381Z,47.97
2023-05-05T05:33:03.704Z,47.34
2023-05-05T05:35:30.008Z,46.69
2023-05-05T05:37:56.270Z,48.67
2023-05-05T05:40:22.533Z,45.53
2023-05-05T05:42:48.825Z,46.65
2023-05-05T05:45:15.082Z,46.22
2023-05-05T05:47:41.375Z,45.96
2023-05-05T05:50:07.969Z,43.38
2023-05-05T05:52:34.490Z,45.71
2023-05-05T05:55:00.716Z,42.55
2023-05-05T05:57:26.983Z,41.99
2023-05-05T05:59:53.227Z,43.38
2023-05-05T06:02:19.536Z,45.29
2023-05-05T06:04:45.824Z,42.80
2023-05-05T06:07:12.117Z,42.16
2023-05-05T06:09:38.353Z,41.98
2023-05-05T06:12:04.601Z,44.10
2023-05-05T06:14:30.896Z,46.80
2023-05-05T06:16:57.183Z,44.35
2023-05-05T06:19:23.417Z,45.17
2023-05-05T06:21:49.691Z,47.45
2023-05-05T06:24:17.634Z,45.95
2023-05-05T06:26:43.879Z,44.24
2023-05-05T06:29:12.157Z,45.68
2023-05-05T06:31:38.622Z,44.22
2023-05-05T06:34:04.929Z,44.45
2023-05-05T06:36:31.228Z,45.03
2023-05-05T06:38:57.548Z,48.59
2023-05-05T06:41:23.823Z,46.25
2023-05-05T06:43:50.293Z,45.17
2023-05-05T06:46:16.534Z,44.69
2023-05-05T06:48:42.821Z,45.18
2023-05-05T06:51:09.088Z,43.68
2023-05-05T06:53:35.357Z,45.75
2023-05-05T06:56:01.585Z,45.81
2023-05-05T06:58:27.817Z,46.71
2023-05-05T07:00:54.132Z,46.93
2023-05-05T07:03:20.492Z,46.70
2023-05-05T07:05:46.884Z,45.80
2023-05-05T07:08:13.316Z,47.24
2023-05-05T07:10:39.594Z,46.90
2023-05-05T07:13:05.879Z,43.91
2023-05-05T07:15:32.136Z,43.97
2023-05-05T07:17:58.581Z,43.72
2023-05-05T07:20:24.928Z,46.08
2023-05-05T07:22:51.167Z,46.65
2023-05-05T07:25:17.452Z,44.70
2023-05-05T07:27:43.856Z,46.26
2023-05-05T07:30:14.004Z,47.85
2023-05-05T07:32:42.813Z,46.83
2023-05-05T07:35:09.136Z,44.95
2023-05-05T07:37:35.373Z,48.63
2023-05-05T07:40:01.649Z,47.59
2023-05-05T07:42:27.917Z,46.22
2023-05-05T07:44:54.153Z,49.54
2023-05-05T07:47:20.409Z,48.73
2023-05-05T07:49:46.694Z,48.41
2023-05-05T07:52:12.985Z,49.27
2023-05-05T07:54:39.254Z,48.46
2023-05-05T07:57:05.537Z,47.45
2023-05-05T07:59:31.800Z,48.93
2023-05-05T08:01:58.042Z,46.04
2023-05-05T08:04:24.365Z,50.29
2023-05-05T08:06:50.657Z,50.80
2023-05-05T08:09:16.917Z,48.13
2023-05-05T08:11:43.185Z,47.80
2023-05-05T08:14:09.486Z,47.88
2023-05-05T08:16:35.730Z,46.21
2023-05-05T08:19:02.008Z,46.94
2023-05-05T08:21:28.309Z,46.00
2023-05-05T08:23:54.538Z,47.90
2023-05-05T08:26:20.809Z,46.20
2023-05-05T08:28:47.112Z,47.13
2023-05-05T08:31:13.406Z,46.42
2023-05-05T08:33:39.690Z,45.64
2023-05-05T08:36:05.922Z,45.95
2023-05-05T08:38:32.153Z,50.65
2023-05-05T08:40:58.429Z,48.47
2023-05-05T08:43:24.722Z,48.02
2023-05-05T08:45:50.979Z,46.22
2023-05-05T08:48:17.379Z,49.20
2023-05-05T08:50:43.708Z,46.01
2023-05-05T08:53:09.926Z,46.27
2023-05-05T08:55:36.205Z,46.12
2023-05-05T08:58:02.502Z,44.03
2023-05-05T09:00:28.733Z,44.22
2023-05-05T09:02:55.062Z,46.13
2023-05-05T09:05:21.409Z,44.86
2023-05-05T09:07:47.713Z,45.34
2023-05-05T09:10:13.973Z,43.26
2023-05-05T09:12:40.242Z,44.11
2023-05-05T09:15:06.768Z,46.44
2023-05-05T09:17:33.197Z,44.92
2023-05-05T09:19:59.496Z,42.54
2023-05-05T09:22:25.736Z,45.43
2023-05-05T09:24:52.077Z,43.69
2023-05-05T09:27:18.330Z,46.77
2023-05-05T09:29:44.587Z,44.06
2023-05-05T09:32:10.814Z,46.72
2023-05-05T09:34:37.065Z,43.46
2023-05-05T09:37:03.418Z,42.20
2023-05-05T09:39:29.727Z,42.53
2023-05-05T09:41:56.009Z,43.22
2023-05-05T09:44:22.337Z,42.21
2023-05-05T09:46:48.731Z,43.46
2023-05-05T09:49:15.057Z,42.84
2023-05-05T09:51:41.322Z,44.67
2023-05-05T09:54:07.572Z,44.37
2023-05-05T09:56:33.840Z,39.67
2023-05-05T09:59:00.070Z,40.77
2023-05-05T10:01:26.401Z,43.07
2023-05-05T10:03:52.780Z,40.32
2023-05-05T10:06:19.009Z,41.14
2023-05-05T10:08:45.307Z,42.28
2023-05-05T10:11:11.623Z,45.42
2023-05-05T10:13:37.856Z,42.56
2023-05-05T10:16:04.208Z,40.80
2023-05-05T10:18:30.565Z,39.11
2023-05-05T10:20:56.867Z,41.49
2023-05-05T10:23:23.229Z,42.65
2023-05-05T10:25:49.510Z,39.32
2023-05-05T10:28:15.774Z,40.65
2023-05-05T10:30:42.061Z,41.97
2023-05-05T10:33:22.698Z,42.83
2023-05-05T10:35:54.636Z,41.31
2023-05-05T10:38:20.938Z,39.75
2023-05-05T10:40:47.199Z,40.75
2023-05-05T10:43:13.463Z,35.79
2023-05-05T10:45:39.799Z,40.33
2023-05-05T10:48:06.203Z,39.89
2023-05-05T10:50:32.504Z,38.79
2023-05-05T10:52:58.750Z,37.93
2023-05-05T10:55:24.984Z,37.67
2023-05-05T10:57:51.270Z,39.61
2023-05-05T11:00:17.549Z,38.33
2023-05-05T11:02:43.825Z,36.56
2023-05-05T11:05:10.124Z,37.19
2023-05-05T11:07:36.371Z,38.55
2023-05-05T11:10:02.813Z,33.74
2023-05-05T11:12:29.387Z,34.38
2023-05-05T11:14:55.695Z,40.14
2023-05-05T11:17:21.935Z,35.77
2023-05-05T11:19:48.315Z,35.36
2023-05-05T11:22:14.700Z,34.75
2023-05-05T11:24:40.938Z,36.31
2023-05-05T11:27:07.182Z,37.79
2023-05-05T11:29:33.415Z,35.81
2023-05-05T11:31:59.664Z,35.00
2023-05-05T11:34:25.954Z,34.17
2023-05-05T11:36:52.248Z,33.80
2023-05-05T11:39:18.490Z,34.88
2023-05-05T11:41:44.748Z,33.24
2023-05-05T11:44:10.981Z,33.87
2023-05-05T11:46:37.282Z,35.30
2023-05-05T11:49:03.555Z,34.91
2023-05-05T11:51:29.781Z,37.43
2023-05-05T11:53:57.872Z,36.77
2023-05-05T11:56:25.251Z,38.58
2023-05-05T11:58:51.531Z,36.64
2023-05-05T12:01:17.821Z,35.69
2023-05-05T12:03:44.115Z,36.85
2023-05-05T12:06:10.461Z,35.21
2023-05-05T12:08:36.696Z,33.43
2023-05-05T12:11:02.957Z,32.46
2023-05-05T12:13:29.241Z,35.37
2023-05-05T12:15:55.493Z,34.69
2023-05-05T12:18:21.782Z,34.82
2023-05-05T12:20:48.020Z,35.33
2023-05-05T12:23:14.235Z,35.01
2023-05-05T12:25:40.565Z,36.53
2023-05-05T12:28:06.812Z,38.20
2023-05-05T12:30:33.120Z,35.91
2023-05-05T12:32:59.466Z,39.44
2023-05-05T12:35:25.773Z,37.17
2023-05-05T12:37:52.054Z,37.08
2023-05-05T12:40:18.344Z,33.42
2023-05-05T12:42:46.275Z,35.75
2023-05-05T12:45:12.674Z,38.30
2023-05-05T12:47:38.927Z,36.66
2023-05-05T12:50:05.173Z,36.70
2023-05-05T12:52:31.512Z,34.68
2023-05-05T12:54:57.768Z,37.05
2023-05-05T12:57:23.989Z,34.78
2023-05-05T12:59:50.268Z,36.07
2023-05-05T13:02:16.571Z,35.68
2023-05-05T13:04:42.895Z,33.95
2023-05-05T13:07:09.143Z,35.15
2023-05-05T13:09:35.402Z,37.85
2023-05-05T13:12:01.740Z,33.37
2023-05-05T13:14:27.959Z,35.50
2023-05-05T13:16:54.178Z,36.97
2023-05-05T13:19:20.446Z,38.30
2023-05-05T13:21:46.712Z,37.03
2023-05-05T13:24:25.971Z,37.53
2023-05-05T13:26:59.139Z,34.64
2023-05-05T13:29:29.469Z,37.52
2023-05-05T13:31:57.495Z,39.61
2023-05-05T13:34:23.729Z,41.59
2023-05-05T13:36:50.024Z,41.25
2023-05-05T13:39:16.279Z,41.26
2023-05-05T13:41:42.526Z,42.07
2023-05-05T13:44:08.868Z,40.46
2023-05-05T13:46:35.143Z,41.49
2023-05-05T13:49:01.413Z,41.23
2023-05-05T13:51:27.656Z,41.48
2023-05-05T13:53:53.908Z,43.41
2023-05-05T13:56:20.130Z,43.77
2023-05-05T13:58:46.407Z,42.43
2023-05-05T14:01:12.734Z,42.33
2023-05-05T14:03:39.029Z,43.14
2023-05-05T14:06:05.408Z,43.11
2023-05-05T14:08:31.660Z,40.89
2023-05-05T14:10:57.911Z,38.25
2023-05-05T14:13:24.301Z,40.47
2023-05-05T14:15:50.530Z,39.64
2023-05-05T14:18:16.777Z,37.99
2023-05-05T14:20:43.104Z,40.21
2023-05-05T14:23:09.377Z,39.94
2023-05-05T14:25:35.605Z,36.44
2023-05-05T14:28:01.888Z,37.56
2023-05-05T14:30:28.136Z,36.89
2023-05-05T14:32:54.449Z,34.93
2023-05-05T14:35:20.694Z,36.63
2023-05-05T14:37:46.982Z,37.47
2023-05-05T14:40:13.224Z,37.96
2023-05-05T14:42:39.509Z,37.19
2023-05-05T14:45:05.806Z,37.51
2023-05-05T14:47:32.117Z,38.43
2023-05-05T14:49:58.391Z,39.14
2023-05-05T14:52:24.644Z,39.80
2023-05-05T14:54:50.912Z,41.35
2023-05-05T14:57:17.202Z,40.40
2023-05-05T14:59:43.433Z,40.71
2023-05-05T15:02:09.662Z,40.26
2023-05-05T15:04:35.914Z,41.08
2023-05-05T15:07:02.163Z,38.91
2023-05-05T15:09:28.419Z,38.53
2023-05-05T15:11:54.682Z,33.92
2023-05-05T15:14:20.920Z,35.11
2023-05-05T15:16:47.146Z,33.64
2023-05-05T15:19:13.462Z,33.99
2023-05-05T15:21:39.752Z,35.78
2023-05-05T15:24:05.981Z,33.84
2023-05-05T15:26:32.215Z,34.42
2023-05-05T15:28:58.443Z,33.67
2023-05-05T15:31:24.685Z,37.10
2023-05-05T15:33:50.964Z,33.39
2023-05-05T15:36:17.271Z,33.80
2023-05-05T15:38:43.514Z,36.11
2023-05-05T15:41:09.755Z,34.27
2023-05-05T15:43:35.988Z,34.76
2023-05-05T15:46:02.233Z,38.92
2023-05-05T15:48:28.491Z,37.66
2023-05-05T15:50:54.745Z,32.67
2023-05-05T15:53:21.019Z,33.17
2023-05-05T15:55:47.352Z,34.06
2023-05-05T15:58:13.588Z,34.31
2023-05-05T16:00:39.864Z,33.05
2023-05-05T16:03:06.230Z,35.74
2023-05-05T16:05:32.518Z,32.67
2023-05-05T16:07:58.754Z,34.52
2023-05-05T16:10:25.020Z,35.73
2023-05-05T16:12:51.267Z,38.87
2023-05-05T16:15:17.705Z,34.20
2023-05-05T16:17:43.998Z,34.62
2023-05-05T16:20:10.280Z,35.35
2023-05-05T16:22:36.537Z,33.86
2023-05-05T16:25:08.935Z,35.17
2023-05-05T16:27:35.428Z,35.47
2023-05-05T16:30:01.649Z,36.75
2023-05-05T16:32:27.939Z,39.49
2023-05-05T16:34:54.203Z,44.50
2023-05-05T16:37:20.434Z,45.73
2023-05-05T16:39:46.664Z,46.78
2023-05-05T16:42:12.960Z,47.45
2023-05-05T16:44:39.198Z,50.14
2023-05-05T16:47:05.450Z,46.42
2023-05-05T16:49:31.700Z,45.70
2023-05-05T16:51:57.946Z,43.20
2023-05-05T16:54:24.167Z,41.98
2023-05-05T16:56:50.408Z,42.54
2023-05-05T16:59:16.662Z,42.90
2023-05-05T17:01:42.919Z,39.36
2023-05-05T17:04:09.229Z,38.65
2023-05-05T17:06:35.463Z,36.92
2023-05-05T17:09:01.685Z,41.59
2023-05-05T17:11:27.928Z,39.42
2023-05-05T17:13:54.189Z,38.68
2023-05-05T17:16:20.428Z,39.09
2023-05-05T17:18:46.705Z,39.24
2023-05-05T17:21:12.963Z,39.97
2023-05-05T17:23:39.183Z,40.95
2023-05-05T17:26:05.402Z,42.56
2023-05-05T17:28:31.693Z,43.13
2023-05-05T17:30:57.997Z,43.50
2023-05-05T17:33:24.247Z,43.55
2023-05-05T17:35:50.514Z,43.65
2023-05-05T17:38:16.747Z,41.39
2023-05-05T17:40:42.995Z,43.84
2023-05-05T17:43:09.285Z,42.77
2023-05-05T17:45:35.599Z,43.18
2023-05-05T17:48:01.899Z,43.92
2023-05-05T17:50:28.158Z,44.24
2023-05-05T17:52:54.391Z,43.55
2023-05-05T17:55:20.647Z,44.76
2023-05-05T17:57:46.953Z,43.06
2023-05-05T18:00:13.289Z,43.83
2023-05-05T18:02:39.768Z,45.17
2023-05-05T18:05:06.097Z,45.51
2023-05-05T18:07:32.375Z,42.32
2023-05-05T18:09:58.616Z,46.77
2023-05-05T18:12:24.867Z,46.87
2023-05-05T18:14:51.113Z,45.87
2023-05-05T18:17:17.372Z,45.31
2023-05-05T18:19:43.671Z,44.93
2023-05-05T18:22:09.982Z,46.17
2023-05-05T18:24:36.224Z,46.17
2023-05-05T18:27:02.512Z,46.20
2023-05-05T18:29:29.155Z,47.30
2023-05-05T18:31:55.408Z,48.22
2023-05-05T18:34:21.688Z,48.94
2023-05-05T18:36:47.944Z,47.94
2023-05-05T18:39:14.274Z,48.62
2023-05-05T18:41:40.597Z,48.97
2023-05-05T18:44:06.886Z,49.41
2023-05-05T18:46:33.114Z,50.26
2023-05-05T18:48:59.410Z,49.99
2023-05-05T18:51:25.703Z,48.23
2023-05-05T18:53:51.948Z,45.70
2023-05-05T18:56:18.244Z,46.57
2023-05-05T18:58:44.552Z,46.77
2023-05-05T19:01:10.808Z,48.96
2023-05-05T19:03:37.315Z,49.76
2023-05-05T19:06:03.607Z,49.42
2023-05-05T19:08:29.855Z,49.56
2023-05-05T19:10:56.117Z,49.16
2023-05-05T19:13:22.495Z,50.28
2023-05-05T19:15:48.730Z,49.98
2023-05-05T19:18:15.003Z,52.49
2023-05-05T19:20:41.313Z,51.47
2023-05-05T19:23:07.627Z,52.42
2023-05-05T19:25:33.887Z,52.92
2023-05-05T19:28:00.178Z,52.36
2023-05-05T19:30:26.401Z,53.14
2023-05-05T19:32:52.683Z,52.26
2023-05-05T19:35:19.024Z,49.97
2023-05-05T19:37:45.273Z,49.24
2023-05-05T19:40:11.824Z,48.55
2023-05-05T19:42:38.424Z,48.51
2023-05-05T19:45:04.694Z,49.33
2023-05-05T19:47:31.056Z,49.91
2023-05-05T19:49:57.299Z,50.34
2023-05-05T19:52:23.593Z,49.67
2023-05-05T19:54:49.857Z,50.48
2023-05-05T19:57:17.059Z,51.42
2023-05-05T19:59:43.278Z,49.92
2023-05-05T20:02:09.527Z,50.94
2023-05-05T20:04:35.810Z,51.28
2023-05-05T20:07:02.048Z,50.45
2023-05-05T20:09:28.289Z,50.58
2023-05-05T20:11:54.562Z,49.88
2023-05-05T20:14:20.850Z,50.68
2023-05-05T20:16:47.098Z,52.12
2023-05-05T20:19:13.359Z,50.99
2023-05-05T20:21:39.584Z,50.68
2023-05-05T20:24:05.889Z,50.30
2023-05-05T20:26:32.190Z,47.63
2023-05-05T20:28:58.408Z,47.71
2023-05-05T20:31:24.709Z,48.04
2023-05-05T20:33:51.062Z,48.64
2023-05-05T20:36:17.290Z,51.04
2023-05-05T20:38:43.554Z,50.28
2023-05-05T20:41:09.861Z,52.25
2023-05-05T20:43:36.099Z,51.29
2023-05-05T20:46:02.375Z,49.86
2023-05-05T20:48:28.668Z,49.14
2023-05-05T20:50:54.974Z,47.03
2023-05-05T20:53:21.278Z,48.16
2023-05-05T20:55:47.569Z,49.06
2023-05-05T20:58:13.833Z,51.78
2023-05-05T21:00:40.159Z,50.63
2023-05-05T21:03:06.500Z,51.04
2023-05-05T21:05:32.789Z,51.11
2023-05-05T21:08:17.577Z,53.02
2023-05-05T21:11:02.549Z,54.49
2023-05-05T21:13:47.578Z,54.39
2023-05-05T21:16:13.872Z,54.19
2023-05-05T21:18:40.127Z,54.36
2023-05-05T21:21:06.360Z,54.77
2023-05-05T21:23:32.598Z,54.44
2023-05-05T21:25:58.869Z,54.85
2023-05-05T21:28:25.131Z,54.45
2023-05-05T21:31:10.303Z,52.55
2023-05-05T21:33:56.317Z,52.79
2023-05-05T21:36:41.151Z,52.99
2023-05-05T21:39:07.397Z,51.21
2023-05-05T21:41:52.543Z,53.53
2023-05-05T21:44:37.534Z,52.48
2023-05-05T21:47:22.482Z,53.93
2023-05-05T21:50:07.643Z,53.83
2023-05-05T21:52:53.007Z,54.07
2023-05-05T21:55:37.799Z,53.01
2023-05-05T21:58:22.723Z,54.27
2023-05-05T22:00:49.604Z,54.92
2023-05-05T22:03:15.923Z,53.92
2023-05-05T22:05:42.211Z,54.65
2023-05-05T22:08:08.485Z,54.67
2023-05-05T22:10:34.769Z,53.37
2023-05-05T22:13:01.032Z,53.88
2023-05-05T22:15:32.625Z,55.26
2023-05-05T22:18:02.086Z,54.79
2023-05-05T22:20:28.308Z,55.78
2023-05-05T22:22:54.552Z,55.17
2023-05-05T22:25:20.780Z,54.09
2023-05-05T22:27:47.009Z,52.93
2023-05-05T22:30:13.234Z,54.90
2023-05-05T22:32:39.494Z,55.38
2023-05-05T22:35:05.772Z,55.12
2023-05-05T22:37:32.023Z,56.07
2023-05-05T22:39:58.298Z,55.54
2023-05-05T22:42:24.551Z,55.68
2023-05-05T22:44:50.860Z,54.81
2023-05-05T22:47:17.247Z,52.80
2023-05-05T22:49:43.656Z,53.18
2023-05-05T22:52:10.421Z,53.04
2023-05-05T22:54:36.755Z,53.85
2023-05-05T22:57:02.988Z,55.22
2023-05-05T22:59:29.268Z,56.49
2023-05-05T23:01:55.604Z,56.96
2023-05-05T23:04:21.917Z,58.00
2023-05-05T23:06:48.182Z,56.73
2023-05-05T23:09:14.415Z,55.26
2023-05-05T23:11:40.683Z,54.21
2023-05-05T23:14:06.972Z,53.06
2023-05-05T23:16:33.250Z,54.42
2023-05-05T23:18:59.502Z,54.70
2023-05-05T23:21:25.739Z,54.43
2023-05-05T23:23:51.995Z,53.75
2023-05-05T23:26:18.244Z,53.86
2023-05-05T23:28:44.500Z,54.72
2023-05-05T23:31:10.821Z,54.24
2023-05-05T23:33:37.082Z,55.30
2023-05-05T23:36:03.335Z,54.59
2023-05-05T23:38:29.633Z,54.38
2023-05-05T23:40:55.877Z,55.51
2023-05-05T23:43:22.179Z,55.46
2023-05-05T23:45:48.505Z,55.69
2023-05-05T23:48:14.771Z,53.29
2023-05-05T23:50:41.032Z,52.43
2023-05-05T23:53:07.272Z,50.55
2023-05-05T23:55:33.515Z,49.93
2023-05-05T23:57:59.761Z,49.29
